sensor_id;sensor_type;location;lat;lon;timestamp;pressure;altitude;pressure_sealevel;temperature;humidity
83248;BME280;73465;51.038;7.052;2024-03-23T00:54:37;100192.84;;;7.48;88.10
83248;BME280;73465;51.038;7.052;2024-03-23T00:57:03;100197.38;;;7.45;88.34
83248;BME280;73465;51.038;7.052;2024-03-23T00:59:28;100189.94;;;7.34;87.46
83248;BME280;73465;51.038;7.052;2024-03-23T01:01:54;100191.41;;;7.19;87.70
83248;BME280;73465;51.038;7.052;2024-03-23T01:04:20;100194.81;;;7.21;89.12
83248;BME280;73465;51.038;7.052;2024-03-23T01:06:46;100183.56;;;7.19;88.72
83248;BME280;73465;51.038;7.052;2024-03-23T01:09:12;100173.88;;;6.99;88.31
83248;BME280;73465;51.038;7.052;2024-03-23T01:11:38;100179.00;;;7.02;88.53
83248;BME280;73465;51.038;7.052;2024-03-23T01:14:04;100181.72;;;6.99;88.78
83248;BME280;73465;51.038;7.052;2024-03-23T01:16:29;100185.06;;;7.02;88.75
83248;BME280;73465;51.038;7.052;2024-03-23T01:18:54;100181.63;;;7.02;88.01
83248;BME280;73465;51.038;7.052;2024-03-23T01:21:20;100178.66;;;6.87;88.84
83248;BME280;73465;51.038;7.052;2024-03-23T01:23:45;100170.03;;;6.85;88.91
83248;BME280;73465;51.038;7.052;2024-03-23T01:26:11;100160.53;;;6.83;88.07
83248;BME280;73465;51.038;7.052;2024-03-23T01:28:36;100167.84;;;6.74;89.01
83248;BME280;73465;51.038;7.052;2024-03-23T01:31:03;100165.47;;;6.68;87.64
83248;BME280;73465;51.038;7.052;2024-03-23T01:33:28;100174.09;;;6.70;88.89
83248;BME280;73465;51.038;7.052;2024-03-23T01:35:54;100174.97;;;6.71;88.88
83248;BME280;73465;51.038;7.052;2024-03-23T01:38:20;100172.13;;;6.75;88.92
83248;BME280;73465;51.038;7.052;2024-03-23T01:40:46;100196.06;;;6.66;87.81
83248;BME280;73465;51.038;7.052;2024-03-23T01:43:12;100193.78;;;6.57;88.06
83248;BME280;73465;51.038;7.052;2024-03-23T01:45:39;100177.47;;;6.50;88.46
83248;BME280;73465;51.038;7.052;2024-03-23T01:48:05;100182.75;;;6.49;87.61
83248;BME280;73465;51.038;7.052;2024-03-23T01:50:31;100175.84;;;6.46;88.06
83248;BME280;73465;51.038;7.052;2024-03-23T01:52:58;100179.66;;;6.37;87.79
83248;BME280;73465;51.038;7.052;2024-03-23T01:55:24;100162.63;;;6.27;87.77
83248;BME280;73465;51.038;7.052;2024-03-23T01:57:50;100163.19;;;6.35;87.91
83248;BME280;73465;51.038;7.052;2024-03-23T02:00:15;100165.38;;;6.48;87.75
83248;BME280;73465;51.038;7.052;2024-03-23T02:02:45;100173.75;;;6.56;87.47
83248;BME280;73465;51.038;7.052;2024-03-23T02:05:11;100178.44;;;6.48;87.51
83248;BME280;73465;51.038;7.052;2024-03-23T02:07:38;100177.69;;;6.44;87.03
83248;BME280;73465;51.038;7.052;2024-03-23T02:10:06;100180.41;;;6.41;88.01
83248;BME280;73465;51.038;7.052;2024-03-23T02:12:31;100174.34;;;6.40;88.09
83248;BME280;73465;51.038;7.052;2024-03-23T02:15:00;100165.53;;;6.19;86.60
83248;BME280;73465;51.038;7.052;2024-03-23T02:17:25;100153.84;;;6.04;87.31
83248;BME280;73465;51.038;7.052;2024-03-23T02:19:52;100151.00;;;6.10;87.22
83248;BME280;73465;51.038;7.052;2024-03-23T02:22:17;100160.78;;;6.05;86.78
83248;BME280;73465;51.038;7.052;2024-03-23T02:24:42;100168.56;;;6.07;87.23
83248;BME280;73465;51.038;7.052;2024-03-23T02:27:08;100168.00;;;5.99;87.39
83248;BME280;73465;51.038;7.052;2024-03-23T02:29:33;100157.25;;;6.06;88.19
83248;BME280;73465;51.038;7.052;2024-03-23T02:32:00;100170.84;;;6.16;87.86
83248;BME280;73465;51.038;7.052;2024-03-23T02:34:26;100174.81;;;6.03;87.55
83248;BME280;73465;51.038;7.052;2024-03-23T02:36:51;100186.28;;;5.97;87.96
83248;BME280;73465;51.038;7.052;2024-03-23T02:39:17;100194.00;;;6.02;87.28
83248;BME280;73465;51.038;7.052;2024-03-23T02:41:42;100180.75;;;5.81;86.70
83248;BME280;73465;51.038;7.052;2024-03-23T02:44:07;100186.59;;;5.62;86.67
83248;BME280;73465;51.038;7.052;2024-03-23T02:46:36;100173.81;;;5.55;87.23
83248;BME280;73465;51.038;7.052;2024-03-23T02:49:02;100175.09;;;5.68;86.85
83248;BME280;73465;51.038;7.052;2024-03-23T02:51:28;100180.31;;;5.68;86.47
83248;BME280;73465;51.038;7.052;2024-03-23T02:53:54;100180.88;;;5.51;86.25
83248;BME280;73465;51.038;7.052;2024-03-23T02:56:20;100196.19;;;5.62;86.21
83248;BME280;73465;51.038;7.052;2024-03-23T02:58:48;100178.19;;;5.54;86.86
83248;BME280;73465;51.038;7.052;2024-03-23T03:01:13;100189.19;;;5.64;86.18
83248;BME280;73465;51.038;7.052;2024-03-23T03:03:39;100193.38;;;5.68;86.59
83248;BME280;73465;51.038;7.052;2024-03-23T03:06:04;100189.97;;;5.66;86.56
83248;BME280;73465;51.038;7.052;2024-03-23T03:08:29;100185.75;;;5.62;86.65
83248;BME280;73465;51.038;7.052;2024-03-23T03:10:55;100188.97;;;5.70;86.34
83248;BME280;73465;51.038;7.052;2024-03-23T03:13:20;100176.69;;;5.47;85.81
83248;BME280;73465;51.038;7.052;2024-03-23T03:15:46;100174.22;;;5.42;86.14
83248;BME280;73465;51.038;7.052;2024-03-23T03:18:12;100167.47;;;5.35;86.72
83248;BME280;73465;51.038;7.052;2024-03-23T03:20:40;100174.91;;;5.47;86.26
83248;BME280;73465;51.038;7.052;2024-03-23T03:23:07;100163.34;;;5.55;86.48
83248;BME280;73465;51.038;7.052;2024-03-23T03:25:33;100165.69;;;5.62;86.62
83248;BME280;73465;51.038;7.052;2024-03-23T03:27:58;100163.34;;;5.55;87.09
83248;BME280;73465;51.038;7.052;2024-03-23T03:30:24;100157.31;;;5.53;86.14
83248;BME280;73465;51.038;7.052;2024-03-23T03:32:51;100173.13;;;5.48;86.47
83248;BME280;73465;51.038;7.052;2024-03-23T03:35:18;100177.44;;;5.51;86.79
83248;BME280;73465;51.038;7.052;2024-03-23T03:37:45;100177.81;;;5.38;85.89
83248;BME280;73465;51.038;7.052;2024-03-23T03:40:11;100160.69;;;5.29;85.65
83248;BME280;73465;51.038;7.052;2024-03-23T03:42:39;100180.38;;;5.40;86.83
83248;BME280;73465;51.038;7.052;2024-03-23T03:45:05;100157.88;;;5.36;86.49
83248;BME280;73465;51.038;7.052;2024-03-23T03:47:30;100176.88;;;5.41;85.95
83248;BME280;73465;51.038;7.052;2024-03-23T03:49:56;100176.97;;;5.38;86.17
83248;BME280;73465;51.038;7.052;2024-03-23T03:52:21;100170.91;;;5.37;86.85
83248;BME280;73465;51.038;7.052;2024-03-23T03:54:47;100177.03;;;5.36;86.26
83248;BME280;73465;51.038;7.052;2024-03-23T03:57:12;100160.41;;;5.39;86.95
83248;BME280;73465;51.038;7.052;2024-03-23T03:59:37;100147.63;;;5.29;86.82
83248;BME280;73465;51.038;7.052;2024-03-23T04:02:03;100186.81;;;5.56;86.93
83248;BME280;73465;51.038;7.052;2024-03-23T04:04:28;100176.56;;;5.50;86.84
83248;BME280;73465;51.038;7.052;2024-03-23T04:07:00;100187.56;;;5.60;87.04
83248;BME280;73465;51.038;7.052;2024-03-23T04:09:26;100175.31;;;5.35;86.41
83248;BME280;73465;51.038;7.052;2024-03-23T04:11:53;100185.91;;;5.30;85.56
83248;BME280;73465;51.038;7.052;2024-03-23T04:14:18;100189.66;;;5.22;86.19
83248;BME280;73465;51.038;7.052;2024-03-23T04:16:44;100169.69;;;5.21;86.25
83248;BME280;73465;51.038;7.052;2024-03-23T04:19:09;100184.25;;;5.28;86.69
83248;BME280;73465;51.038;7.052;2024-03-23T04:21:36;100186.97;;;5.25;86.37
83248;BME280;73465;51.038;7.052;2024-03-23T04:24:02;100179.97;;;5.25;86.46
83248;BME280;73465;51.038;7.052;2024-03-23T04:26:28;100174.84;;;5.22;86.20
83248;BME280;73465;51.038;7.052;2024-03-23T04:28:53;100190.56;;;5.21;85.77
83248;BME280;73465;51.038;7.052;2024-03-23T04:31:18;100200.09;;;5.22;87.01
83248;BME280;73465;51.038;7.052;2024-03-23T04:33:44;100181.84;;;5.22;86.82
83248;BME280;73465;51.038;7.052;2024-03-23T04:36:09;100170.44;;;5.24;86.53
83248;BME280;73465;51.038;7.052;2024-03-23T04:38:35;100185.34;;;5.21;86.46
83248;BME280;73465;51.038;7.052;2024-03-23T04:41:01;100187.31;;;5.12;86.25
83248;BME280;73465;51.038;7.052;2024-03-23T04:43:28;100197.50;;;5.22;87.49
83248;BME280;73465;51.038;7.052;2024-03-23T04:45:54;100185.44;;;5.18;86.09
83248;BME280;73465;51.038;7.052;2024-03-23T04:48:20;100190.00;;;5.11;86.03
83248;BME280;73465;51.038;7.052;2024-03-23T04:50:46;100194.69;;;5.28;86.05
83248;BME280;73465;51.038;7.052;2024-03-23T04:53:13;100200.09;;;5.22;85.75
83248;BME280;73465;51.038;7.052;2024-03-23T04:55:38;100202.72;;;5.22;86.14
83248;BME280;73465;51.038;7.052;2024-03-23T04:58:04;100198.44;;;5.19;86.06
83248;BME280;73465;51.038;7.052;2024-03-23T05:00:30;100188.25;;;5.11;86.49
83248;BME280;73465;51.038;7.052;2024-03-23T05:02:56;100190.56;;;5.21;86.86
83248;BME280;73465;51.038;7.052;2024-03-23T05:05:21;100184.94;;;5.33;86.36
83248;BME280;73465;51.038;7.052;2024-03-23T05:07:46;100180.38;;;5.40;86.48
83248;BME280;73465;51.038;7.052;2024-03-23T05:10:12;100175.41;;;5.32;85.34
83248;BME280;73465;51.038;7.052;2024-03-23T05:12:38;100190.66;;;5.18;85.92
83248;BME280;73465;51.038;7.052;2024-03-23T05:15:05;100193.28;;;5.18;85.41
83248;BME280;73465;51.038;7.052;2024-03-23T05:17:34;100192.59;;;5.11;85.87
83248;BME280;73465;51.038;7.052;2024-03-23T05:19:59;100195.28;;;5.09;85.42
83248;BME280;73465;51.038;7.052;2024-03-23T05:22:25;100203.34;;;5.02;85.38
83248;BME280;73465;51.038;7.052;2024-03-23T05:24:51;100202.47;;;5.01;85.10
83248;BME280;73465;51.038;7.052;2024-03-23T05:27:17;100206.94;;;4.97;85.77
83248;BME280;73465;51.038;7.052;2024-03-23T05:29:42;100204.28;;;4.99;86.15
83248;BME280;73465;51.038;7.052;2024-03-23T05:32:07;100217.81;;;5.12;86.37
83248;BME280;73465;51.038;7.052;2024-03-23T05:34:33;100203.00;;;5.12;86.35
83248;BME280;73465;51.038;7.052;2024-03-23T05:36:58;100212.13;;;5.27;86.58
83248;BME280;73465;51.038;7.052;2024-03-23T05:39:24;100209.34;;;5.32;87.03
83248;BME280;73465;51.038;7.052;2024-03-23T05:41:49;100211.91;;;5.34;87.08
83248;BME280;73465;51.038;7.052;2024-03-23T05:44:14;100213.47;;;5.39;86.73
83248;BME280;73465;51.038;7.052;2024-03-23T05:46:40;100190.41;;;5.25;86.75
83248;BME280;73465;51.038;7.052;2024-03-23T05:49:08;100209.44;;;5.29;86.82
83248;BME280;73465;51.038;7.052;2024-03-23T05:51:37;100197.34;;;5.26;85.97
83248;BME280;73465;51.038;7.052;2024-03-23T05:54:02;100208.50;;;5.32;86.78
83248;BME280;73465;51.038;7.052;2024-03-23T05:56:29;100194.44;;;5.36;86.25
83248;BME280;73465;51.038;7.052;2024-03-23T05:58:54;100212.88;;;5.31;86.30
83248;BME280;73465;51.038;7.052;2024-03-23T06:01:21;100188.09;;;5.16;85.78
83248;BME280;73465;51.038;7.052;2024-03-23T06:03:47;100209.06;;;5.13;86.35
83248;BME280;73465;51.038;7.052;2024-03-23T06:06:12;100203.75;;;5.16;85.99
83248;BME280;73465;51.038;7.052;2024-03-23T06:08:38;100221.25;;;5.12;86.51
83248;BME280;73465;51.038;7.052;2024-03-23T06:11:04;100220.94;;;5.23;86.66
83248;BME280;73465;51.038;7.052;2024-03-23T06:13:32;100236.16;;;5.37;86.62
83248;BME280;73465;51.038;7.052;2024-03-23T06:15:57;100229.84;;;5.44;86.63
83248;BME280;73465;51.038;7.052;2024-03-23T06:18:24;100233.16;;;5.50;86.69
83248;BME280;73465;51.038;7.052;2024-03-23T06:20:49;100242.84;;;5.46;85.71
83248;BME280;73465;51.038;7.052;2024-03-23T06:23:14;100234.97;;;5.47;86.61
83248;BME280;73465;51.038;7.052;2024-03-23T06:25:40;100241.78;;;5.52;85.12
83248;BME280;73465;51.038;7.052;2024-03-23T06:28:06;100215.63;;;5.26;84.80
83248;BME280;73465;51.038;7.052;2024-03-23T06:30:31;100235.41;;;5.34;84.80
83248;BME280;73465;51.038;7.052;2024-03-23T06:32:57;100228.69;;;5.26;85.60
83248;BME280;73465;51.038;7.052;2024-03-23T06:35:25;100230.28;;;5.30;85.37
83248;BME280;73465;51.038;7.052;2024-03-23T06:37:50;100233.56;;;5.37;84.76
83248;BME280;73465;51.038;7.052;2024-03-23T06:40:17;100229.31;;;5.33;84.78
83248;BME280;73465;51.038;7.052;2024-03-23T06:42:42;100225.88;;;5.33;84.35
83248;BME280;73465;51.038;7.052;2024-03-23T06:45:08;100225.09;;;5.29;84.62
83248;BME280;73465;51.038;7.052;2024-03-23T06:47:33;100245.16;;;5.28;85.28
83248;BME280;73465;51.038;7.052;2024-03-23T06:50:00;100247.97;;;5.21;85.52
83248;BME280;73465;51.038;7.052;2024-03-23T06:52:29;100252.25;;;5.23;86.13
83248;BME280;73465;51.038;7.052;2024-03-23T06:54:56;100246.06;;;5.27;85.52
83248;BME280;73465;51.038;7.052;2024-03-23T06:57:21;100234.97;;;5.19;85.10
83248;BME280;73465;51.038;7.052;2024-03-23T06:59:47;100233.13;;;5.23;85.30
83248;BME280;73465;51.038;7.052;2024-03-23T07:02:13;100248.66;;;5.27;85.39
83248;BME280;73465;51.038;7.052;2024-03-23T07:04:39;100238.09;;;5.30;85.52
83248;BME280;73465;51.038;7.052;2024-03-23T07:07:05;100239.56;;;5.39;85.55
83248;BME280;73465;51.038;7.052;2024-03-23T07:09:30;100247.88;;;5.52;85.26
83248;BME280;73465;51.038;7.052;2024-03-23T07:11:57;100247.81;;;5.54;83.97
83248;BME280;73465;51.038;7.052;2024-03-23T07:14:23;100248.69;;;5.54;84.68
83248;BME280;73465;51.038;7.052;2024-03-23T07:16:51;100240.69;;;5.59;85.10
83248;BME280;73465;51.038;7.052;2024-03-23T07:19:17;100231.88;;;5.63;84.92
83248;BME280;73465;51.038;7.052;2024-03-23T07:21:43;100228.28;;;5.66;84.15
83248;BME280;73465;51.038;7.052;2024-03-23T07:24:09;100243.75;;;5.72;83.67
83248;BME280;73465;51.038;7.052;2024-03-23T07:26:34;100244.19;;;5.85;83.79
83248;BME280;73465;51.038;7.052;2024-03-23T07:28:59;100244.56;;;6.01;83.49
83248;BME280;73465;51.038;7.052;2024-03-23T07:31:25;100256.81;;;6.25;82.75
83248;BME280;73465;51.038;7.052;2024-03-23T07:33:50;100252.88;;;6.37;82.76
83248;BME280;73465;51.038;7.052;2024-03-23T07:36:18;100253.91;;;6.08;81.83
83248;BME280;73465;51.038;7.052;2024-03-23T07:38:43;100256.16;;;6.19;82.00
83248;BME280;73465;51.038;7.052;2024-03-23T07:41:16;100258.13;;;6.37;82.18
83248;BME280;73465;51.038;7.052;2024-03-23T07:43:44;100251.66;;;6.22;81.51
83248;BME280;73465;51.038;7.052;2024-03-23T07:46:11;100257.66;;;6.26;82.60
83248;BME280;73465;51.038;7.052;2024-03-23T07:48:37;100262.97;;;6.48;82.08
83248;BME280;73465;51.038;7.052;2024-03-23T07:51:10;100254.06;;;6.54;82.16
83248;BME280;73465;51.038;7.052;2024-03-23T07:53:37;100255.78;;;6.55;80.54
83248;BME280;73465;51.038;7.052;2024-03-23T07:56:07;100263.41;;;6.61;81.88
83248;BME280;73465;51.038;7.052;2024-03-23T07:58:34;100252.75;;;6.89;79.47
83248;BME280;73465;51.038;7.052;2024-03-23T08:01:10;100239.50;;;6.70;80.19
83248;BME280;73465;51.038;7.052;2024-03-23T08:03:37;100250.06;;;6.91;79.52
83248;BME280;73465;51.038;7.052;2024-03-23T08:06:19;100273.81;;;7.10;79.05
83248;BME280;73465;51.038;7.052;2024-03-23T08:08:46;100245.59;;;6.71;79.20
83248;BME280;73465;51.038;7.052;2024-03-23T08:11:13;100257.19;;;6.87;78.56
83248;BME280;73465;51.038;7.052;2024-03-23T08:13:42;100258.38;;;7.25;78.61
83248;BME280;73465;51.038;7.052;2024-03-23T08:16:08;100248.41;;;7.34;79.06
83248;BME280;73465;51.038;7.052;2024-03-23T08:18:39;100256.56;;;7.27;76.27
83248;BME280;73465;51.038;7.052;2024-03-23T08:21:06;100252.63;;;7.38;75.54
83248;BME280;73465;51.038;7.052;2024-03-23T08:23:34;100250.41;;;7.50;77.94
83248;BME280;73465;51.038;7.052;2024-03-23T08:26:02;100249.66;;;7.68;75.05
83248;BME280;73465;51.038;7.052;2024-03-23T08:28:29;100251.63;;;7.63;74.29
83248;BME280;73465;51.038;7.052;2024-03-23T08:30:56;100256.06;;;7.61;72.44
83248;BME280;73465;51.038;7.052;2024-03-23T08:33:22;100248.06;;;7.86;73.90
83248;BME280;73465;51.038;7.052;2024-03-23T08:36:00;100258.28;;;7.93;69.62
83248;BME280;73465;51.038;7.052;2024-03-23T08:38:26;100259.28;;;7.90;71.30
83248;BME280;73465;51.038;7.052;2024-03-23T08:41:03;100253.03;;;7.72;70.54
83248;BME280;73465;51.038;7.052;2024-03-23T08:43:31;100261.06;;;7.67;70.84
83248;BME280;73465;51.038;7.052;2024-03-23T08:46:13;100267.19;;;8.71;68.94
83248;BME280;73465;51.038;7.052;2024-03-23T08:48:40;100260.16;;;8.72;65.41
83248;BME280;73465;51.038;7.052;2024-03-23T08:51:08;100261.91;;;9.47;62.96
83248;BME280;73465;51.038;7.052;2024-03-23T08:53:38;100245.81;;;9.73;62.53
83248;BME280;73465;51.038;7.052;2024-03-23T08:56:05;100256.63;;;9.67;64.17
83248;BME280;73465;51.038;7.052;2024-03-23T08:58:32;100247.53;;;9.18;65.06
83248;BME280;73465;51.038;7.052;2024-03-23T09:01:10;100258.13;;;9.17;63.34
83248;BME280;73465;51.038;7.052;2024-03-23T09:03:36;100255.31;;;9.39;63.25
83248;BME280;73465;51.038;7.052;2024-03-23T09:06:09;100250.88;;;9.76;63.89
83248;BME280;73465;51.038;7.052;2024-03-23T09:08:36;100265.16;;;9.53;62.10
83248;BME280;73465;51.038;7.052;2024-03-23T09:11:08;100259.84;;;9.54;62.72
83248;BME280;73465;51.038;7.052;2024-03-23T09:13:34;100226.16;;;9.98;62.57
83248;BME280;73465;51.038;7.052;2024-03-23T09:16:00;100234.94;;;10.49;60.64
83248;BME280;73465;51.038;7.052;2024-03-23T09:18:27;100255.66;;;10.73;60.52
83248;BME280;73465;51.038;7.052;2024-03-23T09:20:52;100249.50;;;10.72;60.06
83248;BME280;73465;51.038;7.052;2024-03-23T09:23:22;100244.50;;;11.16;59.02
83248;BME280;73465;51.038;7.052;2024-03-23T09:25:47;100239.91;;;11.98;57.76
83248;BME280;73465;51.038;7.052;2024-03-23T09:28:12;100255.03;;;12.25;57.20
83248;BME280;73465;51.038;7.052;2024-03-23T09:30:39;100242.66;;;11.02;59.40
83248;BME280;73465;51.038;7.052;2024-03-23T09:33:13;100244.34;;;10.37;60.38
83248;BME280;73465;51.038;7.052;2024-03-23T09:35:43;100247.03;;;11.65;57.87
83248;BME280;73465;51.038;7.052;2024-03-23T09:38:09;100249.38;;;11.23;57.23
83248;BME280;73465;51.038;7.052;2024-03-23T09:40:40;100228.78;;;11.30;55.98
83248;BME280;73465;51.038;7.052;2024-03-23T09:43:09;100235.56;;;11.66;55.43
83248;BME280;73465;51.038;7.052;2024-03-23T09:45:38;100221.56;;;11.80;55.66
83248;BME280;73465;51.038;7.052;2024-03-23T09:48:05;100239.91;;;11.35;58.50
83248;BME280;73465;51.038;7.052;2024-03-23T09:50:32;100224.31;;;11.00;56.21
83248;BME280;73465;51.038;7.052;2024-03-23T09:52:57;100227.16;;;10.64;56.69
83248;BME280;73465;51.038;7.052;2024-03-23T09:55:23;100229.53;;;9.82;57.67
83248;BME280;73465;51.038;7.052;2024-03-23T09:57:51;100230.03;;;9.19;59.14
83248;BME280;73465;51.038;7.052;2024-03-23T10:00:16;100231.31;;;9.10;60.55
83248;BME280;73465;51.038;7.052;2024-03-23T10:02:42;100231.25;;;9.83;58.89
83248;BME280;73465;51.038;7.052;2024-03-23T10:05:23;100220.50;;;11.22;55.56
83248;BME280;73465;51.038;7.052;2024-03-23T10:07:50;100220.94;;;11.91;53.20
83248;BME280;73465;51.038;7.052;2024-03-23T10:10:16;100218.25;;;11.14;54.85
83248;BME280;73465;51.038;7.052;2024-03-23T10:12:47;100226.94;;;10.84;52.81
83248;BME280;73465;51.038;7.052;2024-03-23T10:15:25;100215.41;;;9.67;55.34
83248;BME280;73465;51.038;7.052;2024-03-23T10:17:51;100227.69;;;9.49;55.61
83248;BME280;73465;51.038;7.052;2024-03-23T10:20:21;100210.09;;;10.71;53.72
83248;BME280;73465;51.038;7.052;2024-03-23T10:22:48;100206.81;;;11.62;50.95
83248;BME280;73465;51.038;7.052;2024-03-23T10:25:14;100198.22;;;11.58;50.82
83248;BME280;73465;51.038;7.052;2024-03-23T10:27:40;100222.63;;;12.51;48.36
83248;BME280;73465;51.038;7.052;2024-03-23T10:30:13;100211.69;;;11.37;50.40
83248;BME280;73465;51.038;7.052;2024-03-23T10:32:42;100220.19;;;10.63;52.33
83248;BME280;73465;51.038;7.052;2024-03-23T10:35:15;100207.16;;;10.26;51.87
83248;BME280;73465;51.038;7.052;2024-03-23T10:37:42;100215.34;;;9.86;52.93
83248;BME280;73465;51.038;7.052;2024-03-23T10:40:10;100209.00;;;9.55;53.72
83248;BME280;73465;51.038;7.052;2024-03-23T10:42:37;100218.28;;;9.26;54.77
83248;BME280;73465;51.038;7.052;2024-03-23T10:45:04;100235.38;;;8.58;52.16
83248;BME280;73465;51.038;7.052;2024-03-23T10:47:30;100229.50;;;8.32;56.64
83248;BME280;73465;51.038;7.052;2024-03-23T10:49:55;100237.75;;;7.82;62.38
83248;BME280;73465;51.038;7.052;2024-03-23T10:52:20;100256.16;;;7.60;61.29
83248;BME280;73465;51.038;7.052;2024-03-23T10:54:47;100239.63;;;7.58;60.09
83248;BME280;73465;51.038;7.052;2024-03-23T10:57:17;100232.97;;;7.71;60.08
83248;BME280;73465;51.038;7.052;2024-03-23T10:59:45;100264.78;;;7.84;58.40
83248;BME280;73465;51.038;7.052;2024-03-23T11:02:21;100241.91;;;7.45;58.48
83248;BME280;73465;51.038;7.052;2024-03-23T11:04:47;100246.97;;;7.27;57.72
83248;BME280;73465;51.038;7.052;2024-03-23T11:09:50;100241.84;;;7.24;57.71
83248;BME280;73465;51.038;7.052;2024-03-23T11:14:49;100264.06;;;7.14;60.69
83248;BME280;73465;51.038;7.052;2024-03-23T11:17:23;100277.50;;;6.81;64.41
83248;BME280;73465;51.038;7.052;2024-03-23T11:22:45;100301.06;;;6.30;67.65
83248;BME280;73465;51.038;7.052;2024-03-23T11:25:19;100292.47;;;6.01;68.92
83248;BME280;73465;51.038;7.052;2024-03-23T11:27:46;100287.38;;;5.97;69.11
83248;BME280;73465;51.038;7.052;2024-03-23T11:30:22;100274.50;;;5.63;68.51
83248;BME280;73465;51.038;7.052;2024-03-23T11:32:50;100280.63;;;5.34;69.89
83248;BME280;73465;51.038;7.052;2024-03-23T11:38:07;100267.69;;;5.58;68.20
83248;BME280;73465;51.038;7.052;2024-03-23T11:40:34;100258.19;;;5.84;65.91
83248;BME280;73465;51.038;7.052;2024-03-23T11:43:01;100248.19;;;6.47;66.23
83248;BME280;73465;51.038;7.052;2024-03-23T11:45:27;100244.81;;;8.02;64.04
83248;BME280;73465;51.038;7.052;2024-03-23T11:48:14;100245.94;;;8.96;60.77
83248;BME280;73465;51.038;7.052;2024-03-23T11:50:41;100243.00;;;9.58;58.05
83248;BME280;73465;51.038;7.052;2024-03-23T11:53:15;100219.25;;;10.64;54.40
83248;BME280;73465;51.038;7.052;2024-03-23T11:56:00;100233.78;;;10.20;58.61
83248;BME280;73465;51.038;7.052;2024-03-23T11:58:26;100238.63;;;9.40;56.52
83248;BME280;73465;51.038;7.052;2024-03-23T12:00:57;100240.66;;;8.77;58.14
83248;BME280;73465;51.038;7.052;2024-03-23T12:03:23;100235.41;;;9.15;56.77
83248;BME280;73465;51.038;7.052;2024-03-23T12:05:56;100229.34;;;10.04;54.96
83248;BME280;73465;51.038;7.052;2024-03-23T12:08:37;100223.13;;;11.22;53.65
83248;BME280;73465;51.038;7.052;2024-03-23T12:11:16;100234.44;;;9.90;56.10
83248;BME280;73465;51.038;7.052;2024-03-23T12:13:45;100233.97;;;9.27;57.62
83248;BME280;73465;51.038;7.052;2024-03-23T12:16:18;100221.03;;;10.47;57.51
83248;BME280;73465;51.038;7.052;2024-03-23T12:18:48;100209.69;;;11.11;53.95
83248;BME280;73465;51.038;7.052;2024-03-23T12:21:17;100217.47;;;11.44;53.67
83248;BME280;73465;51.038;7.052;2024-03-23T12:23:43;100230.09;;;9.89;55.57
83248;BME280;73465;51.038;7.052;2024-03-23T12:26:13;100255.84;;;8.71;56.59
83248;BME280;73465;51.038;7.052;2024-03-23T12:28:43;100259.41;;;9.08;55.91
83248;BME280;73465;51.038;7.052;2024-03-23T12:31:10;100244.09;;;9.72;53.54
83248;BME280;73465;51.038;7.052;2024-03-23T12:33:35;100272.69;;;9.60;54.51
83248;BME280;73465;51.038;7.052;2024-03-23T12:36:00;100259.97;;;9.14;55.56
83248;BME280;73465;51.038;7.052;2024-03-23T12:38:26;100283.13;;;8.47;58.73
83248;BME280;73465;51.038;7.052;2024-03-23T12:40:51;100262.63;;;8.14;61.33
83248;BME280;73465;51.038;7.052;2024-03-23T12:43:17;100296.47;;;7.33;63.43
83248;BME280;73465;51.038;7.052;2024-03-23T12:45:50;100295.03;;;6.79;65.29
83248;BME280;73465;51.038;7.052;2024-03-23T12:48:18;100300.66;;;5.62;69.63
83248;BME280;73465;51.038;7.052;2024-03-23T12:50:43;100326.44;;;4.85;75.62
83248;BME280;73465;51.038;7.052;2024-03-23T12:53:09;100340.22;;;4.24;78.98
83248;BME280;73465;51.038;7.052;2024-03-23T12:55:35;100317.75;;;4.20;79.24
83248;BME280;73465;51.038;7.052;2024-03-23T12:58:00;100268.72;;;4.01;78.16
83248;BME280;73465;51.038;7.052;2024-03-23T13:00:26;100281.75;;;4.65;80.26
83248;BME280;73465;51.038;7.052;2024-03-23T13:02:52;100273.38;;;5.44;78.73
83248;BME280;73465;51.038;7.052;2024-03-23T13:05:17;100267.69;;;6.13;77.14
83248;BME280;73465;51.038;7.052;2024-03-23T13:07:43;100263.91;;;6.95;75.75
83248;BME280;73465;51.038;7.052;2024-03-23T13:10:10;100254.63;;;8.17;75.28
83248;BME280;73465;51.038;7.052;2024-03-23T13:12:35;100265.28;;;8.94;71.18
83248;BME280;73465;51.038;7.052;2024-03-23T13:15:01;100243.56;;;8.71;70.99
83248;BME280;73465;51.038;7.052;2024-03-23T13:17:27;100246.75;;;8.78;64.91
83248;BME280;73465;51.038;7.052;2024-03-23T13:19:54;100242.78;;;9.26;66.95
83248;BME280;73465;51.038;7.052;2024-03-23T13:22:20;100240.97;;;8.90;64.47
83248;BME280;73465;51.038;7.052;2024-03-23T13:24:47;100232.13;;;8.32;62.18
83248;BME280;73465;51.038;7.052;2024-03-23T13:27:14;100226.72;;;7.96;63.58
83248;BME280;73465;51.038;7.052;2024-03-23T13:29:39;100223.09;;;8.79;62.52
83248;BME280;73465;51.038;7.052;2024-03-23T13:32:05;100226.13;;;9.45;61.07
83248;BME280;73465;51.038;7.052;2024-03-23T13:34:31;100213.69;;;9.12;58.13
83248;BME280;73465;51.038;7.052;2024-03-23T13:36:57;100215.66;;;9.80;59.51
83248;BME280;73465;51.038;7.052;2024-03-23T13:39:23;100207.91;;;9.94;57.29
83248;BME280;73465;51.038;7.052;2024-03-23T13:41:49;100203.72;;;10.91;56.56
83248;BME280;73465;51.038;7.052;2024-03-23T13:44:14;100206.44;;;11.21;55.00
83248;BME280;73465;51.038;7.052;2024-03-23T13:46:40;100189.38;;;10.97;53.25
83248;BME280;73465;51.038;7.052;2024-03-23T13:49:16;100191.91;;;11.91;54.92
83248;BME280;73465;51.038;7.052;2024-03-23T13:51:46;100193.84;;;9.78;54.17
83248;BME280;73465;51.038;7.052;2024-03-23T13:54:12;100200.00;;;9.42;56.09
83248;BME280;73465;51.038;7.052;2024-03-23T13:56:38;100190.91;;;10.85;53.22
83248;BME280;73465;51.038;7.052;2024-03-23T13:59:03;100187.56;;;10.49;51.42
83248;BME280;73465;51.038;7.052;2024-03-23T14:01:28;100183.41;;;10.45;53.32
83248;BME280;73465;51.038;7.052;2024-03-23T14:03:55;100170.78;;;9.83;56.41